createdAt,value
2019-05-17T00:00:27.282Z,5.20
2019-05-17T00:00:51.873Z,5.40
2019-05-17T00:01:17.054Z,5.00
2019-05-17T00:01:42.249Z,6.00
2019-05-17T00:02:08.539Z,5.00
2019-05-17T00:02:33.805Z,5.00
2019-05-17T00:02:58.790Z,6.00
2019-05-17T00:03:24.383Z,5.00
2019-05-17T00:03:49.597Z,5.00
2019-05-17T00:04:16.481Z,6.00
2019-05-17T00:04:41.489Z,5.00
2019-05-17T00:05:07.801Z,4.60
2019-05-17T00:05:32.979Z,6.00
2019-05-17T00:05:57.635Z,6.00
2019-05-17T00:06:22.838Z,6.00
2019-05-17T00:06:48.022Z,5.60
2019-05-17T00:07:13.371Z,5.20
2019-05-17T00:07:38.625Z,5.00
2019-05-17T00:08:03.300Z,6.00
2019-05-17T00:08:34.416Z,5.00
2019-05-17T00:08:56.439Z,6.00
2019-05-17T00:09:21.862Z,4.00
2019-05-17T00:09:47.912Z,6.00
2019-05-17T00:10:13.340Z,5.00
2019-05-17T00:10:38.566Z,5.00
2019-05-17T00:11:06.528Z,5.00
2019-05-17T00:11:30.370Z,5.50
2019-05-17T00:11:56.802Z,5.00
2019-05-17T00:12:22.155Z,4.40
2019-05-17T00:12:47.419Z,4.20
2019-05-17T00:13:14.604Z,5.00
2019-05-17T00:13:39.067Z,4.80
2019-05-17T00:14:06.267Z,5.00
2019-05-17T00:14:31.205Z,4.00
2019-05-17T00:14:56.284Z,5.00
2019-05-17T00:15:21.609Z,5.25
2019-05-17T00:15:47.407Z,5.00
2019-05-17T00:16:12.775Z,6.00
2019-05-17T00:16:37.640Z,5.00
2019-05-17T00:17:02.917Z,5.00
2019-05-17T00:17:28.101Z,6.00
2019-05-17T00:17:53.323Z,5.00
2019-05-17T00:18:18.511Z,5.00
2019-05-17T00:18:43.175Z,4.00
2019-05-17T00:19:08.367Z,4.60
2019-05-17T00:19:33.559Z,6.00
2019-05-17T00:19:58.718Z,5.00
2019-05-17T00:20:23.350Z,5.00
2019-05-17T00:20:48.556Z,4.80
2019-05-17T00:21:16.762Z,4.50
2019-05-17T00:21:41.264Z,5.40
2019-05-17T00:22:07.375Z,5.00
2019-05-17T00:22:32.808Z,5.00
2019-05-17T00:22:57.984Z,5.00
2019-05-17T00:23:23.172Z,4.60
2019-05-17T00:23:47.848Z,5.00
2019-05-17T00:24:13.318Z,6.00
2019-05-17T00:24:38.604Z,5.00
2019-05-17T00:25:04.258Z,5.00
2019-05-17T00:25:28.898Z,5.00
2019-05-17T00:25:56.387Z,5.80
2019-05-17T00:26:21.748Z,5.00
2019-05-17T00:26:46.967Z,6.00
2019-05-17T00:27:11.628Z,5.00
2019-05-17T00:27:37.843Z,4.00
2019-05-17T00:28:03.130Z,5.00
2019-05-17T00:28:28.284Z,6.00
2019-05-17T00:28:53.014Z,5.00
2019-05-17T00:29:18.219Z,5.00
2019-05-17T00:29:43.468Z,5.00
2019-05-17T00:30:09.731Z,5.00
2019-05-17T00:30:34.368Z,5.00
2019-05-17T00:30:59.560Z,5.80
2019-05-17T00:31:26.306Z,5.00
2019-05-17T00:31:51.726Z,6.00
2019-05-17T00:32:17.109Z,4.00
2019-05-17T00:32:42.515Z,5.00
2019-05-17T00:33:08.148Z,5.00
2019-05-17T00:33:33.488Z,6.00
2019-05-17T00:33:58.107Z,6.00
2019-05-17T00:34:23.308Z,5.00
2019-05-17T00:34:48.548Z,5.00
2019-05-17T00:35:14.217Z,5.33
2019-05-17T00:35:38.881Z,5.00
2019-05-17T00:36:04.076Z,5.40
2019-05-17T00:36:29.281Z,5.00
2019-05-17T00:36:54.532Z,5.00
2019-05-17T00:37:19.226Z,5.75
2019-05-17T00:37:46.439Z,5.00
2019-05-17T00:38:11.341Z,6.00
2019-05-17T00:38:47.955Z,5.20
2019-05-17T00:39:04.146Z,5.00
2019-05-17T00:39:29.465Z,5.00
2019-05-17T00:39:56.715Z,5.00
2019-05-17T00:40:21.696Z,5.00
2019-05-17T00:40:47.071Z,4.50
2019-05-17T00:41:12.408Z,6.00
2019-05-17T00:41:37.728Z,5.00
2019-05-17T00:42:03.002Z,5.00
2019-05-17T00:42:27.675Z,5.00
2019-05-17T00:42:52.860Z,5.00
2019-05-17T00:43:18.030Z,4.20
2019-05-17T00:43:43.222Z,6.00
2019-05-17T00:44:08.522Z,6.00
2019-05-17T00:44:33.148Z,5.20
2019-05-17T00:44:58.354Z,5.00
2019-05-17T00:45:23.594Z,5.50
2019-05-17T00:45:48.792Z,5.00
2019-05-17T00:46:14.488Z,5.83
2019-05-17T00:46:39.188Z,5.00
2019-05-17T00:47:06.351Z,5.60
2019-05-17T00:47:31.654Z,5.00
2019-05-17T00:47:57.316Z,5.00
2019-05-17T00:48:22.116Z,5.00
2019-05-17T00:48:47.398Z,6.00
2019-05-17T00:49:12.590Z,4.60
2019-05-17T00:49:37.780Z,5.00
2019-05-17T00:50:02.472Z,5.40
2019-05-17T00:50:27.688Z,5.00
2019-05-17T00:50:54.229Z,6.00
2019-05-17T00:51:19.578Z,5.25
2019-05-17T00:51:44.252Z,6.00
2019-05-17T00:52:09.496Z,6.00
2019-05-17T00:52:36.850Z,5.00
2019-05-17T00:53:01.622Z,5.00
2019-05-17T00:53:26.925Z,6.00
2019-05-17T00:53:52.290Z,7.00
2019-05-17T00:54:17.666Z,5.20
2019-05-17T00:54:42.942Z,6.80
2019-05-17T00:55:07.739Z,5.00
2019-05-17T00:55:32.998Z,6.00
2019-05-17T00:55:58.230Z,5.80
2019-05-17T00:56:23.422Z,5.00
2019-05-17T00:56:48.620Z,6.00
2019-05-17T00:57:16.448Z,6.00
2019-05-17T00:57:40.974Z,5.40
2019-05-17T00:58:06.916Z,5.00
2019-05-17T00:58:32.198Z,6.00
2019-05-17T00:58:56.928Z,6.00
2019-05-17T00:59:22.131Z,6.00
2019-05-17T00:59:47.693Z,5.00
2019-05-17T01:00:13.056Z,6.00
2019-05-17T01:00:38.039Z,5.40
2019-05-17T01:01:03.303Z,5.00
2019-05-17T01:01:28.591Z,6.00
2019-05-17T01:01:56.106Z,6.00
2019-05-17T01:02:20.395Z,6.00
2019-05-17T01:02:46.784Z,5.60
2019-05-17T01:03:12.357Z,5.60
2019-05-17T01:03:37.610Z,6.00
2019-05-17T01:04:02.293Z,6.40
2019-05-17T01:04:27.719Z,6.00
2019-05-17T01:04:53.417Z,6.00
2019-05-17T01:05:18.611Z,6.00
2019-05-17T01:05:43.312Z,7.00
2019-05-17T01:06:08.544Z,6.00
2019-05-17T01:06:33.734Z,6.00
2019-05-17T01:06:58.942Z,6.40
2019-05-17T01:07:26.753Z,7.00
2019-05-17T01:07:50.486Z,6.60
2019-05-17T01:08:17.469Z,6.00
2019-05-17T01:08:42.908Z,6.00
2019-05-17T01:09:08.351Z,6.00
2019-05-17T01:09:33.167Z,6.20
2019-05-17T01:09:58.386Z,6.50
2019-05-17T01:10:23.566Z,6.00
2019-05-17T01:10:50.491Z,5.00
2019-05-17T01:11:16.552Z,5.00
2019-05-17T01:11:41.842Z,6.00
2019-05-17T01:12:07.630Z,5.00
2019-05-17T01:12:32.837Z,5.50
2019-05-17T01:12:57.689Z,6.80
2019-05-17T01:13:22.980Z,6.00
2019-05-17T01:13:48.291Z,6.00
2019-05-17T01:14:17.332Z,7.00
2019-05-17T01:14:41.294Z,8.00
2019-05-17T01:15:08.778Z,5.50
2019-05-17T01:15:34.017Z,6.00
2019-05-17T01:15:59.285Z,6.00
2019-05-17T01:16:23.955Z,6.00
2019-05-17T01:16:49.134Z,5.75
2019-05-17T01:17:16.555Z,5.00
2019-05-17T01:17:41.957Z,6.00
2019-05-17T01:18:07.384Z,6.00
2019-05-17T01:18:32.849Z,6.00
2019-05-17T01:18:58.269Z,5.20
2019-05-17T01:19:23.465Z,6.00
2019-05-17T01:19:48.161Z,6.00
2019-05-17T01:20:13.153Z,6.00
2019-05-17T01:20:38.519Z,6.60
2019-05-17T01:21:06.250Z,6.00
2019-05-17T01:21:31.616Z,6.00
2019-05-17T01:21:56.969Z,6.00
2019-05-17T01:22:22.177Z,5.00
2019-05-17T01:22:47.631Z,7.00
2019-05-17T01:23:12.379Z,7.00
2019-05-17T01:23:37.889Z,6.00
2019-05-17T01:24:03.101Z,6.00
2019-05-17T01:24:28.276Z,5.50
2019-05-17T01:24:53.483Z,6.00
2019-05-17T01:25:18.187Z,6.00
2019-05-17T01:25:43.361Z,7.50
2019-05-17T01:26:08.684Z,6.60
2019-05-17T01:26:33.965Z,5.20
2019-05-17T01:26:58.795Z,6.00
2019-05-17T01:27:26.254Z,6.00
2019-05-17T01:27:50.915Z,6.00
2019-05-17T01:28:16.469Z,5.60
2019-05-17T01:28:41.228Z,6.00
2019-05-17T01:29:06.865Z,6.00
2019-05-17T01:29:32.122Z,6.00
2019-05-17T01:29:57.391Z,8.00
2019-05-17T01:30:22.047Z,7.00
2019-05-17T01:30:47.223Z,6.00
2019-05-17T01:31:12.437Z,7.00
2019-05-17T01:31:37.511Z,6.00
2019-05-17T01:32:02.721Z,6.00
2019-05-17T01:32:27.355Z,6.00
2019-05-17T01:32:52.549Z,7.00
2019-05-17T01:33:17.726Z,5.20
2019-05-17T01:33:42.945Z,6.00
2019-05-17T01:34:08.147Z,7.00
2019-05-17T01:34:32.789Z,7.00
2019-05-17T01:34:58.034Z,7.00
2019-05-17T01:35:23.241Z,6.00
2019-05-17T01:35:48.450Z,6.40
2019-05-17T01:36:14.410Z,6.00
2019-05-17T01:36:39.747Z,7.00
2019-05-17T01:37:06.495Z,6.00
2019-05-17T01:37:32.003Z,6.00
2019-05-17T01:37:56.663Z,6.80
2019-05-17T01:38:21.953Z,6.00
2019-05-17T01:38:47.168Z,6.00
2019-05-17T01:39:17.317Z,5.80
2019-05-17T01:39:39.481Z,6.00
2019-05-17T01:40:07.382Z,6.00
2019-05-17T01:40:32.665Z,6.00
2019-05-17T01:40:57.901Z,6.60
2019-05-17T01:41:22.571Z,6.50
2019-05-17T01:41:47.869Z,6.00
2019-05-17T01:42:13.092Z,7.00
2019-05-17T01:42:38.281Z,7.00
2019-05-17T01:43:03.565Z,7.00
2019-05-17T01:43:28.217Z,7.00
2019-05-17T01:43:53.411Z,6.00
2019-05-17T01:44:18.596Z,7.00
2019-05-17T01:44:43.864Z,7.00
2019-05-17T01:45:09.082Z,6.00
2019-05-17T01:45:36.081Z,7.00
2019-05-17T01:46:00.985Z,8.00
2019-05-17T01:46:26.587Z,7.00
2019-05-17T01:46:51.887Z,6.00
2019-05-17T01:47:16.795Z,6.75
2019-05-17T01:47:42.085Z,5.40
2019-05-17T01:48:07.646Z,8.00
2019-05-17T01:48:33.454Z,7.00
2019-05-17T01:48:58.095Z,7.00
2019-05-17T01:49:23.279Z,7.00
2019-05-17T01:49:48.455Z,6.00
2019-05-17T01:50:13.934Z,7.00
2019-05-17T01:50:39.321Z,7.00
2019-05-17T01:51:04.691Z,7.80
2019-05-17T01:51:29.991Z,7.00
2019-05-17T01:51:56.877Z,7.00
2019-05-17T01:52:21.865Z,6.00
2019-05-17T01:52:47.052Z,6.00
2019-05-17T01:53:12.253Z,7.00
2019-05-17T01:53:37.453Z,7.00
2019-05-17T01:54:02.629Z,6.00
2019-05-17T01:54:27.827Z,7.00
2019-05-17T01:54:53.009Z,6.00
2019-05-17T01:55:18.343Z,7.60
2019-05-17T01:55:43.565Z,7.00
2019-05-17T01:56:08.185Z,7.00
2019-05-17T01:56:33.435Z,6.00
2019-05-17T01:56:58.635Z,6.60
2019-05-17T01:57:23.833Z,6.00
2019-05-17T01:57:49.018Z,6.00
2019-05-17T01:58:13.673Z,7.00
2019-05-17T01:58:38.881Z,7.00
2019-05-17T01:59:06.620Z,7.00
2019-05-17T01:59:31.358Z,7.00
2019-05-17T01:59:57.131Z,7.00
2019-05-17T02:00:22.571Z,7.00
2019-05-17T02:00:47.835Z,6.00
2019-05-17T02:01:13.055Z,7.80
2019-05-17T02:01:37.905Z,7.00
2019-05-17T02:02:04.357Z,7.00
2019-05-17T02:02:30.684Z,6.00
2019-05-17T02:02:57.740Z,7.40
2019-05-17T02:03:22.546Z,7.00
2019-05-17T02:03:47.875Z,7.00
2019-05-17T02:04:13.241Z,7.40
2019-05-17T02:04:38.767Z,7.00
2019-05-17T02:05:06.316Z,7.00
2019-05-17T02:05:31.978Z,7.80
2019-05-17T02:05:57.280Z,8.00
2019-05-17T02:06:22.483Z,7.00
2019-05-17T02:06:47.354Z,7.00
2019-05-17T02:07:12.566Z,6.60
2019-05-17T02:07:37.777Z,7.00
2019-05-17T02:08:03.005Z,7.20
2019-05-17T02:08:28.174Z,6.00
2019-05-17T02:08:52.846Z,7.00
2019-05-17T02:09:33.786Z,7.00
2019-05-17T02:09:47.511Z,7.00
2019-05-17T02:10:12.367Z,7.00
2019-05-17T02:10:37.586Z,7.00
2019-05-17T02:11:03.215Z,7.00
2019-05-17T02:11:28.463Z,7.00
2019-05-17T02:11:54.290Z,6.00
2019-05-17T02:12:19.571Z,7.00
2019-05-17T02:12:48.692Z,7.20
2019-05-17T02:13:11.967Z,8.60
2019-05-17T02:13:37.737Z,7.25
2019-05-17T02:14:02.633Z,7.00
2019-05-17T02:14:27.854Z,7.00
2019-05-17T02:14:53.036Z,7.00
2019-05-17T02:15:19.861Z,7.60
2019-05-17T02:15:46.839Z,7.00
2019-05-17T02:16:11.522Z,7.00
2019-05-17T02:16:37.592Z,7.00
2019-05-17T02:17:03.093Z,8.00
2019-05-17T02:17:27.810Z,7.50
2019-05-17T02:17:53.035Z,6.80
2019-05-17T02:18:18.238Z,7.00
2019-05-17T02:18:43.511Z,6.00
2019-05-17T02:19:08.697Z,8.00
2019-05-17T02:19:33.375Z,6.20
2019-05-17T02:19:58.583Z,8.00
2019-05-17T02:20:23.825Z,6.60
2019-05-17T02:20:49.042Z,7.00
2019-05-17T02:21:16.684Z,8.00
2019-05-17T02:21:41.418Z,7.40
2019-05-17T02:22:07.433Z,7.00
2019-05-17T02:22:33.000Z,7.00
2019-05-17T02:22:57.640Z,6.00
2019-05-17T02:23:22.900Z,8.00
2019-05-17T02:23:48.100Z,6.80
2019-05-17T02:24:13.306Z,7.00
2019-05-17T02:24:38.608Z,7.00
2019-05-17T02:25:03.917Z,8.00
2019-05-17T02:25:29.111Z,8.00
2019-05-17T02:25:54.303Z,7.00
2019-05-17T02:26:19.532Z,8.00
2019-05-17T02:26:46.427Z,7.40
2019-05-17T02:27:11.272Z,7.00
2019-05-17T02:27:41.252Z,7.00
2019-05-17T02:28:03.515Z,7.00
2019-05-17T02:28:28.178Z,9.00
2019-05-17T02:28:53.382Z,7.60
2019-05-17T02:29:18.593Z,7.00
2019-05-17T02:29:43.780Z,7.00
2019-05-17T02:30:08.435Z,6.00
2019-05-17T02:30:33.982Z,6.50
2019-05-17T02:30:59.383Z,7.00
2019-05-17T02:31:24.894Z,8.80
2019-05-17T02:31:52.439Z,8.00
2019-05-17T02:32:16.627Z,7.00
2019-05-17T02:32:43.047Z,6.00
2019-05-17T02:33:12.642Z,6.40
2019-05-17T02:33:36.181Z,8.00
2019-05-17T02:34:03.042Z,7.00
2019-05-17T02:34:28.526Z,6.80
2019-05-17T02:34:53.787Z,7.00
2019-05-17T02:35:18.428Z,7.00
2019-05-17T02:35:43.650Z,6.80
2019-05-17T02:36:08.858Z,7.00
2019-05-17T02:36:34.066Z,6.50
2019-05-17T02:37:02.709Z,7.00
2019-05-17T02:37:25.669Z,6.00
2019-05-17T02:37:53.422Z,7.00
2019-05-17T02:38:17.627Z,7.00
2019-05-17T02:38:43.594Z,7.40
2019-05-17T02:39:08.531Z,6.40
2019-05-17T02:39:51.903Z,6.80
2019-05-17T02:40:04.642Z,7.00
2019-05-17T02:40:27.573Z,7.00
2019-05-17T02:40:53.565Z,7.00
2019-05-17T02:41:22.499Z,7.00
2019-05-17T02:41:46.113Z,7.00
2019-05-17T02:42:13.775Z,7.00
2019-05-17T02:42:37.741Z,6.00
2019-05-17T02:43:03.625Z,8.00
2019-05-17T02:43:29.136Z,7.00
2019-05-17T02:43:54.382Z,6.40
2019-05-17T02:44:19.093Z,7.00
2019-05-17T02:44:44.286Z,8.00
2019-05-17T02:45:12.947Z,8.00
2019-05-17T02:45:36.449Z,8.00
2019-05-17T02:46:03.621Z,7.00
2019-05-17T02:46:28.073Z,7.00
2019-05-17T02:46:53.726Z,8.00
2019-05-17T02:47:19.128Z,7.00
2019-05-17T02:47:44.146Z,6.60
2019-05-17T02:48:09.483Z,7.00
2019-05-17T02:48:34.678Z,8.00
2019-05-17T02:49:02.788Z,8.00
2019-05-17T02:49:26.258Z,7.00
2019-05-17T02:49:52.529Z,7.00
2019-05-17T02:50:18.014Z,7.40
2019-05-17T02:50:47.401Z,7.00
2019-05-17T02:51:13.100Z,7.00
2019-05-17T02:51:37.622Z,8.00
2019-05-17T02:52:03.451Z,7.00
2019-05-17T02:52:28.849Z,6.80
2019-05-17T02:52:53.496Z,6.40
2019-05-17T02:53:18.706Z,7.00
2019-05-17T02:53:43.690Z,8.00
2019-05-17T02:54:13.018Z,7.00
2019-05-17T02:54:36.406Z,8.00
2019-05-17T02:55:03.925Z,6.40
2019-05-17T02:55:28.701Z,7.00
2019-05-17T02:55:54.216Z,7.60
2019-05-17T02:56:18.913Z,6.40
2019-05-17T02:56:44.086Z,7.00
2019-05-17T02:57:09.267Z,6.00
2019-05-17T02:57:34.871Z,7.00
2019-05-17T02:58:02.555Z,6.20
2019-05-17T02:58:26.541Z,6.75
2019-05-17T02:58:53.354Z,7.00
2019-05-17T02:59:18.866Z,8.40
2019-05-17T02:59:43.585Z,7.00
2019-05-17T03:00:08.911Z,7.00
2019-05-17T03:00:34.445Z,8.00
2019-05-17T03:01:03.279Z,7.00
2019-05-17T03:01:26.177Z,7.00
2019-05-17T03:01:52.769Z,7.00
2019-05-17T03:02:18.127Z,7.00
2019-05-17T03:02:44.079Z,8.00
2019-05-17T03:03:08.939Z,7.60
2019-05-17T03:03:34.157Z,7.00
2019-05-17T03:03:59.398Z,6.00
2019-05-17T03:04:24.634Z,7.50
2019-05-17T03:04:52.378Z,7.75
2019-05-17T03:05:16.328Z,8.00
2019-05-17T03:05:43.093Z,7.40
2019-05-17T03:06:08.517Z,6.40
2019-05-17T03:06:33.190Z,7.00
2019-05-17T03:06:58.450Z,7.25
2019-05-17T03:07:23.644Z,7.00
2019-05-17T03:07:49.023Z,9.00
2019-05-17T03:08:15.255Z,7.00
2019-05-17T03:08:42.961Z,8.00
2019-05-17T03:09:07.613Z,9.00
2019-05-17T03:09:33.536Z,8.00
2019-05-17T03:10:16.465Z,7.00
2019-05-17T03:10:29.031Z,7.00
2019-05-17T03:10:53.562Z,6.00
2019-05-17T03:11:22.373Z,7.50
2019-05-17T03:11:45.483Z,6.20
2019-05-17T03:12:12.885Z,7.00
2019-05-17T03:12:37.568Z,7.60
2019-05-17T03:13:04.077Z,7.00
2019-05-17T03:13:29.116Z,7.00
2019-05-17T03:13:54.409Z,8.00
2019-05-17T03:14:22.788Z,7.00
2019-05-17T03:14:46.555Z,8.00
2019-05-17T03:15:13.034Z,7.60
2019-05-17T03:15:38.453Z,8.00
2019-05-17T03:16:04.097Z,6.60
2019-05-17T03:16:29.682Z,7.00
2019-05-17T03:16:54.394Z,7.00
2019-05-17T03:17:22.702Z,8.00
2019-05-17T03:17:46.511Z,8.00
2019-05-17T03:18:13.377Z,7.00
2019-05-17T03:18:38.175Z,8.00
2019-05-17T03:19:04.350Z,7.00
2019-05-17T03:19:32.557Z,7.00
2019-05-17T03:19:56.742Z,7.00
2019-05-17T03:20:23.238Z,7.00
2019-05-17T03:20:48.298Z,7.00
2019-05-17T03:21:13.821Z,7.20
2019-05-17T03:21:39.047Z,7.00
2019-05-17T03:22:07.362Z,8.40
2019-05-17T03:22:33.181Z,7.00
2019-05-17T03:22:57.715Z,8.60
2019-05-17T03:23:23.658Z,7.00
2019-05-17T03:23:48.481Z,7.00
2019-05-17T03:24:14.006Z,7.00
2019-05-17T03:24:39.244Z,7.00
2019-05-17T03:25:05.094Z,6.60
2019-05-17T03:25:33.008Z,7.00
2019-05-17T03:25:56.702Z,7.00
2019-05-17T03:26:23.112Z,7.00
2019-05-17T03:26:48.561Z,8.00
2019-05-17T03:27:13.706Z,7.00
2019-05-17T03:27:39.088Z,7.60
2019-05-17T03:28:04.856Z,7.00
2019-05-17T03:28:33.412Z,7.00
2019-05-17T03:28:56.482Z,7.80
2019-05-17T03:29:22.641Z,8.60
2019-05-17T03:29:48.260Z,8.00
2019-05-17T03:30:18.183Z,7.40
2019-05-17T03:30:46.609Z,8.00
2019-05-17T03:31:09.364Z,8.00
2019-05-17T03:31:42.608Z,6.80
2019-05-17T03:32:08.086Z,7.00
2019-05-17T03:32:28.432Z,7.80
2019-05-17T03:32:56.261Z,8.00
2019-05-17T03:33:25.924Z,6.00
2019-05-17T03:33:47.509Z,7.60
2019-05-17T03:34:16.962Z,7.00
2019-05-17T03:34:39.077Z,7.20
2019-05-17T03:35:07.364Z,7.80
2019-05-17T03:35:37.552Z,8.40
2019-05-17T03:35:58.932Z,8.00
2019-05-17T03:36:26.002Z,7.00
2019-05-17T03:36:56.301Z,7.00
2019-05-17T03:37:18.024Z,7.40
2019-05-17T03:37:43.752Z,7.00
2019-05-17T03:38:09.352Z,6.20
2019-05-17T03:38:34.563Z,7.00
2019-05-17T03:39:02.858Z,7.40
2019-05-17T03:39:26.152Z,9.00
2019-05-17T03:39:53.579Z,7.50
2019-05-17T03:40:56.532Z,8.00
2019-05-17T03:41:07.291Z,7.00
2019-05-17T03:41:22.169Z,7.00
2019-05-17T03:41:38.541Z,6.20
2019-05-17T03:42:03.814Z,7.00
2019-05-17T03:42:29.081Z,7.00
2019-05-17T03:42:54.039Z,6.00
2019-05-17T03:43:22.420Z,6.00
2019-05-17T03:43:46.581Z,7.00
2019-05-17T03:44:13.534Z,8.00
2019-05-17T03:44:38.176Z,8.00
2019-05-17T03:45:03.451Z,7.00
2019-05-17T03:45:28.677Z,9.00
2019-05-17T03:45:53.882Z,8.00
2019-05-17T03:46:18.566Z,8.00
2019-05-17T03:46:43.752Z,7.00
2019-05-17T03:47:08.956Z,8.00
2019-05-17T03:47:34.136Z,7.00
2019-05-17T03:47:59.353Z,7.00
2019-05-17T03:48:24.113Z,7.00
2019-05-17T03:48:52.865Z,7.00
2019-05-17T03:49:16.269Z,7.00
2019-05-17T03:49:43.630Z,8.00
2019-05-17T03:50:07.869Z,7.00
2019-05-17T03:50:33.734Z,8.00
2019-05-17T03:51:02.343Z,7.00
2019-05-17T03:51:26.052Z,7.00
2019-05-17T03:51:53.162Z,7.00
2019-05-17T03:52:17.668Z,6.00
2019-05-17T03:52:44.373Z,8.00
2019-05-17T03:53:12.886Z,7.00
2019-05-17T03:53:36.102Z,8.00
2019-05-17T03:54:02.352Z,8.00
2019-05-17T03:54:27.990Z,7.25
2019-05-17T03:54:53.667Z,8.00
2019-05-17T03:55:18.309Z,7.00
2019-05-17T03:55:43.597Z,8.00
2019-05-17T03:56:08.796Z,7.00
2019-05-17T03:56:34.003Z,7.00
2019-05-17T03:57:02.645Z,8.00
2019-05-17T03:57:25.606Z,7.00
2019-05-17T03:57:53.269Z,7.00
2019-05-17T03:58:18.057Z,7.00
2019-05-17T03:58:43.626Z,8.00
2019-05-17T03:59:08.425Z,8.00
2019-05-17T03:59:33.760Z,7.00
2019-05-17T03:59:59.107Z,8.00
2019-05-17T04:00:24.632Z,8.00
2019-05-17T04:00:49.331Z,8.40
2019-05-17T04:01:16.147Z,6.80
2019-05-17T04:01:43.603Z,7.60
2019-05-17T04:02:08.301Z,7.00
2019-05-17T04:02:32.985Z,9.00
2019-05-17T04:02:58.208Z,7.00
2019-05-17T04:03:23.442Z,8.00
2019-05-17T04:03:48.645Z,7.20
2019-05-17T04:04:13.920Z,6.00
2019-05-17T04:04:38.993Z,7.00
2019-05-17T04:05:04.649Z,8.00
2019-05-17T04:05:33.094Z,8.40
2019-05-17T04:05:56.299Z,8.00
2019-05-17T04:06:23.846Z,7.50
2019-05-17T04:06:48.415Z,9.00
2019-05-17T04:07:14.256Z,7.50
2019-05-17T04:07:38.927Z,7.40
2019-05-17T04:08:04.137Z,7.60
2019-05-17T04:08:29.323Z,8.00
2019-05-17T04:08:54.543Z,9.00
2019-05-17T04:09:22.232Z,7.75
2019-05-17T04:09:46.768Z,8.00
2019-05-17T04:10:15.028Z,7.00
2019-05-17T04:10:42.628Z,7.40
2019-05-17T04:11:21.188Z,9.00
2019-05-17T04:11:36.567Z,9.00
2019-05-17T04:12:02.851Z,9.00
2019-05-17T04:12:27.351Z,8.40
2019-05-17T04:12:53.026Z,7.00
2019-05-17T04:13:18.456Z,8.60
2019-05-17T04:13:43.507Z,9.00
2019-05-17T04:14:08.668Z,9.00
2019-05-17T04:14:33.741Z,9.00
2019-05-17T04:15:02.881Z,8.40
2019-05-17T04:15:26.116Z,8.00
2019-05-17T04:15:53.103Z,8.00
2019-05-17T04:16:17.748Z,8.00
2019-05-17T04:16:43.087Z,7.00
2019-05-17T04:17:08.373Z,7.00
2019-05-17T04:17:33.580Z,8.00
2019-05-17T04:17:58.314Z,6.80
2019-05-17T04:18:23.773Z,7.25
2019-05-17T04:18:48.979Z,8.00
2019-05-17T04:19:14.510Z,7.17
2019-05-17T04:19:42.385Z,6.00
2019-05-17T04:20:07.744Z,8.00
2019-05-17T04:20:33.679Z,8.00
2019-05-17T04:20:59.070Z,7.00
2019-05-17T04:21:23.852Z,9.00
2019-05-17T04:21:49.156Z,7.00
2019-05-17T04:22:14.529Z,7.00
2019-05-17T04:22:39.833Z,8.00
2019-05-17T04:23:04.553Z,8.00
2019-05-17T04:23:33.550Z,9.00
2019-05-17T04:23:56.883Z,7.00
2019-05-17T04:24:23.052Z,7.00
2019-05-17T04:24:48.171Z,9.00
2019-05-17T04:25:14.508Z,8.00
2019-05-17T04:25:43.298Z,8.00
2019-05-17T04:26:06.635Z,8.00
2019-05-17T04:26:32.621Z,7.00
2019-05-17T04:26:58.182Z,9.00
2019-05-17T04:27:23.362Z,8.00
2019-05-17T04:27:48.555Z,8.60
2019-05-17T04:28:14.055Z,9.00
2019-05-17T04:28:39.291Z,7.00
2019-05-17T04:29:04.604Z,7.80
2019-05-17T04:29:32.845Z,8.00
2019-05-17T04:29:56.189Z,9.00
2019-05-17T04:30:23.311Z,8.00
2019-05-17T04:30:48.382Z,9.00
2019-05-17T04:31:14.488Z,8.00
2019-05-17T04:31:39.147Z,10.00
2019-05-17T04:32:04.442Z,7.00
2019-05-17T04:32:29.681Z,8.25
2019-05-17T04:32:54.870Z,10.00
2019-05-17T04:33:22.892Z,8.40
2019-05-17T04:33:46.530Z,9.00
2019-05-17T04:34:13.493Z,9.00
2019-05-17T04:34:38.622Z,9.00
2019-05-17T04:35:03.944Z,9.00
2019-05-17T04:35:32.457Z,9.00
2019-05-17T04:35:56.285Z,9.00
2019-05-17T04:36:22.443Z,9.00
2019-05-17T04:36:47.368Z,9.00
2019-05-17T04:37:13.160Z,10.00
2019-05-17T04:37:38.776Z,9.00
2019-05-17T04:38:04.607Z,9.00
2019-05-17T04:38:32.854Z,8.25
2019-05-17T04:38:56.201Z,9.00
2019-05-17T04:39:22.649Z,9.80
2019-05-17T04:39:47.969Z,7.00
2019-05-17T04:40:15.019Z,8.00
2019-05-17T04:40:46.718Z,7.00
2019-05-17T04:41:13.303Z,8.00
2019-05-17T04:41:45.646Z,8.00
2019-05-17T04:42:05.091Z,8.00
2019-05-17T04:42:32.907Z,8.80
2019-05-17T04:42:57.203Z,8.00
2019-05-17T04:43:23.255Z,8.75
2019-05-17T04:43:48.041Z,8.20
2019-05-17T04:44:13.305Z,7.60
2019-05-17T04:44:38.520Z,8.60
2019-05-17T04:45:04.054Z,8.00
2019-05-17T04:45:28.864Z,8.60
2019-05-17T04:45:54.119Z,8.00
2019-05-17T04:46:19.326Z,9.00
2019-05-17T04:46:44.531Z,9.00
2019-05-17T04:47:09.746Z,8.00
2019-05-17T04:47:34.464Z,8.00
2019-05-17T04:47:59.756Z,9.00
2019-05-17T04:48:24.961Z,8.00
2019-05-17T04:48:53.362Z,8.00
2019-05-17T04:49:16.501Z,8.00
2019-05-17T04:49:44.078Z,8.00
2019-05-17T04:50:08.662Z,8.00
2019-05-17T04:50:35.098Z,9.00
2019-05-17T04:51:02.515Z,9.60
2019-05-17T04:51:26.735Z,7.00
2019-05-17T04:51:52.611Z,7.00
2019-05-17T04:52:17.978Z,7.00
2019-05-17T04:52:43.376Z,9.00
2019-05-17T04:53:08.906Z,9.00
2019-05-17T04:53:34.178Z,7.00
2019-05-17T04:53:59.407Z,9.00
2019-05-17T04:54:24.115Z,8.25
2019-05-17T04:54:49.491Z,8.00
2019-05-17T04:55:15.151Z,8.00
2019-05-17T04:55:43.071Z,8.00
2019-05-17T04:56:06.724Z,9.00
2019-05-17T04:56:33.286Z,8.00
2019-05-17T04:56:58.836Z,8.00
2019-05-17T04:57:25.022Z,7.25
2019-05-17T04:57:52.681Z,8.00
2019-05-17T04:58:16.595Z,7.00
2019-05-17T04:58:42.861Z,9.00
2019-05-17T04:59:08.380Z,8.00
2019-05-17T04:59:34.132Z,8.40
2019-05-17T04:59:59.406Z,10.00
2019-05-17T05:00:24.638Z,8.00
2019-05-17T05:00:53.339Z,9.00
2019-05-17T05:01:16.848Z,8.80
2019-05-17T05:01:45.290Z,9.00
2019-05-17T05:02:13.159Z,8.80
2019-05-17T05:02:37.484Z,7.60
2019-05-17T05:03:03.732Z,7.00
2019-05-17T05:03:32.403Z,7.00
2019-05-17T05:03:56.422Z,9.00
2019-05-17T05:04:22.650Z,8.00
2019-05-17T05:04:47.459Z,8.00
2019-05-17T05:05:13.544Z,7.00
2019-05-17T05:05:42.559Z,8.60
2019-05-17T05:06:06.220Z,7.80
2019-05-17T05:06:32.960Z,8.60
2019-05-17T05:06:57.872Z,10.00
2019-05-17T05:07:23.082Z,9.60
2019-05-17T05:07:48.322Z,10.00
2019-05-17T05:08:13.266Z,8.40
2019-05-17T05:08:42.414Z,8.00
2019-05-17T05:09:08.834Z,9.80
2019-05-17T05:09:34.127Z,9.20
2019-05-17T05:09:58.748Z,9.00
2019-05-17T05:10:23.960Z,8.00
2019-05-17T05:10:49.185Z,9.20
2019-05-17T05:11:14.740Z,9.40
2019-05-17T05:11:53.368Z,10.00
2019-05-17T05:12:06.685Z,10.00
2019-05-17T05:12:33.538Z,10.00
2019-05-17T05:12:58.851Z,9.00
2019-05-17T05:13:23.543Z,9.00
2019-05-17T05:13:48.792Z,11.00
2019-05-17T05:14:14.781Z,10.83
2019-05-17T05:14:42.894Z,9.00
2019-05-17T05:15:06.520Z,9.00
2019-05-17T05:15:43.963Z,9.33
2019-05-17T05:16:08.965Z,10.00
2019-05-17T05:16:34.159Z,10.00
2019-05-17T05:16:58.818Z,8.00
2019-05-17T05:17:24.065Z,10.20
2019-05-17T05:17:49.481Z,9.00
2019-05-17T05:18:14.833Z,9.40
2019-05-17T05:18:41.944Z,9.40
2019-05-17T05:19:06.484Z,10.00
2019-05-17T05:19:33.086Z,9.00
2019-05-17T05:19:58.367Z,10.00
2019-05-17T05:20:23.027Z,9.40
2019-05-17T05:20:48.262Z,9.40
2019-05-17T05:21:13.475Z,11.00
2019-05-17T05:21:38.675Z,10.00
2019-05-17T05:22:04.493Z,9.80
2019-05-17T05:22:32.758Z,11.00
2019-05-17T05:22:57.526Z,10.40
2019-05-17T05:23:23.914Z,10.50
2019-05-17T05:23:48.880Z,9.60
2019-05-17T05:24:14.816Z,9.00
2019-05-17T05:24:42.233Z,9.00
2019-05-17T05:25:07.013Z,10.60
2019-05-17T05:25:32.316Z,10.50
2019-05-17T05:25:57.655Z,11.00
2019-05-17T05:26:22.940Z,11.00
2019-05-17T05:26:48.231Z,10.00
2019-05-17T05:27:12.894Z,10.00
2019-05-17T05:27:38.106Z,9.00
2019-05-17T05:28:03.286Z,9.00
2019-05-17T05:28:28.518Z,11.00
2019-05-17T05:28:53.739Z,10.80
2019-05-17T05:29:18.377Z,9.40
2019-05-17T05:29:43.597Z,10.60
2019-05-17T05:30:08.801Z,11.00
2019-05-17T05:30:33.998Z,11.60
2019-05-17T05:31:01.651Z,10.00
2019-05-17T05:31:25.546Z,10.00
2019-05-17T05:31:51.805Z,9.00
2019-05-17T05:32:17.108Z,11.00
2019-05-17T05:32:42.928Z,9.80
2019-05-17T05:33:07.617Z,10.20
2019-05-17T05:33:33.436Z,10.00
2019-05-17T05:33:58.728Z,10.80
2019-05-17T05:34:23.938Z,11.00
2019-05-17T05:34:48.621Z,10.20
2019-05-17T05:35:14.777Z,11.00
2019-05-17T05:35:42.210Z,11.00
2019-05-17T05:36:06.888Z,11.00
2019-05-17T05:36:32.781Z,11.00
2019-05-17T05:36:58.219Z,11.00
2019-05-17T05:37:23.408Z,10.00
2019-05-17T05:37:48.637Z,10.80
2019-05-17T05:38:14.213Z,10.33
2019-05-17T05:38:39.422Z,11.00
2019-05-17T05:39:05.896Z,11.00
2019-05-17T05:39:31.943Z,11.00
2019-05-17T05:39:56.939Z,11.00
2019-05-17T05:40:22.125Z,11.00